createdAt,value
2023-02-14T00:01:29.286Z,6.07
2023-02-14T00:04:00.493Z,6.01
2023-02-14T00:06:28.578Z,5.87
2023-02-14T00:08:56.149Z,5.83
2023-02-14T00:11:23.749Z,5.89
2023-02-14T00:14:05.325Z,5.89
2023-02-14T00:16:34.241Z,5.87
2023-02-14T00:19:04.404Z,5.88
2023-02-14T00:21:32.964Z,5.89
2023-02-14T00:24:00.597Z,5.89
2023-02-14T00:26:28.858Z,5.89
2023-02-14T00:28:56.436Z,5.86
2023-02-14T00:31:24.110Z,5.73
2023-02-14T00:33:53.109Z,5.81
2023-02-14T00:36:21.011Z,5.76
2023-02-14T00:38:48.763Z,5.78
2023-02-14T00:41:19.228Z,5.73
2023-02-14T00:43:47.795Z,5.77
2023-02-14T00:46:17.011Z,5.78
2023-02-14T00:48:45.154Z,5.79
2023-02-14T00:51:14.923Z,5.70
2023-02-14T00:53:42.815Z,5.49
2023-02-14T00:56:10.488Z,5.58
2023-02-14T00:58:38.115Z,5.65
2023-02-14T01:01:06.210Z,5.64
2023-02-14T01:03:34.313Z,5.55
2023-02-14T01:06:02.569Z,5.47
2023-02-14T01:08:32.670Z,5.51
2023-02-14T01:11:08.056Z,5.57
2023-02-14T01:13:35.667Z,5.57
2023-02-14T01:16:07.626Z,5.54
2023-02-14T01:18:37.294Z,5.47
2023-02-14T01:21:17.191Z,5.53
2023-02-14T01:23:48.547Z,5.48
2023-02-14T01:26:17.541Z,5.37
2023-02-14T01:28:45.967Z,5.41
2023-02-14T01:31:16.927Z,5.41
2023-02-14T01:33:46.892Z,5.37
2023-02-14T01:36:18.864Z,5.34
2023-02-14T01:38:48.065Z,5.42
2023-02-14T01:41:15.693Z,5.37
2023-02-14T01:43:58.780Z,5.30
2023-02-14T01:46:28.786Z,5.35
2023-02-14T01:49:02.056Z,5.35
2023-02-14T01:51:30.658Z,5.34
2023-02-14T01:54:00.689Z,5.29
2023-02-14T01:56:31.951Z,5.29
2023-02-14T01:59:03.527Z,5.27
2023-02-14T02:01:32.278Z,5.23
2023-02-14T02:04:04.065Z,5.23
2023-02-14T02:06:35.051Z,5.25
2023-02-14T02:09:11.905Z,5.25
2023-02-14T02:11:39.774Z,5.16
2023-02-14T02:14:07.444Z,5.15
2023-02-14T02:16:52.194Z,5.20
2023-02-14T02:19:53.884Z,5.21
2023-02-14T02:22:43.983Z,5.17
2023-02-14T02:25:26.071Z,5.22
2023-02-14T02:28:19.490Z,5.21
2023-02-14T02:31:04.540Z,5.17
2023-02-14T02:34:11.064Z,5.10
2023-02-14T02:36:57.456Z,5.11
2023-02-14T02:39:41.862Z,5.10
2023-02-14T02:42:24.783Z,5.07
2023-02-14T02:45:01.689Z,5.10
2023-02-14T02:47:35.586Z,5.18
2023-02-14T02:50:29.421Z,5.25
2023-02-14T02:53:07.810Z,5.22
2023-02-14T02:56:00.640Z,5.17
2023-02-14T02:58:35.901Z,5.18
2023-02-14T03:01:10.364Z,5.20
2023-02-14T03:03:57.640Z,5.14
2023-02-14T03:06:25.312Z,5.15
2023-02-14T03:08:54.567Z,5.11
2023-02-14T03:11:22.496Z,5.10
2023-02-14T03:14:13.509Z,5.07
2023-02-14T03:16:52.586Z,5.05
2023-02-14T03:19:55.733Z,5.02
2023-02-14T03:22:35.457Z,5.03
2023-02-14T03:25:18.299Z,5.03
2023-02-14T03:27:50.726Z,4.94
2023-02-14T03:30:26.635Z,4.83
2023-02-14T03:33:02.186Z,4.79
2023-02-14T03:35:36.913Z,4.74
2023-02-14T03:38:09.876Z,4.71
2023-02-14T03:40:43.324Z,4.65
2023-02-14T03:43:13.982Z,4.49
2023-02-14T03:45:47.705Z,4.49
2023-02-14T03:48:17.523Z,4.52
2023-02-14T03:50:48.676Z,4.38
2023-02-14T03:53:21.277Z,4.36
2023-02-14T03:55:55.935Z,4.30
2023-02-14T03:58:27.573Z,4.21
2023-02-14T04:01:01.593Z,4.11
2023-02-14T04:03:30.952Z,4.11
2023-02-14T04:05:59.421Z,4.06
2023-02-14T04:08:30.095Z,4.06
2023-02-14T04:11:02.624Z,4.09
2023-02-14T04:13:30.365Z,4.10
2023-02-14T04:15:58.024Z,4.00
2023-02-14T04:18:42.948Z,4.00
2023-02-14T04:21:11.215Z,3.99
2023-02-14T04:23:38.954Z,3.93
2023-02-14T04:26:07.972Z,3.91
2023-02-14T04:28:35.787Z,3.81
2023-02-14T04:31:04.947Z,3.78
2023-02-14T04:33:32.874Z,3.64
2023-02-14T04:36:01.088Z,3.60
2023-02-14T04:38:28.826Z,3.57
2023-02-14T04:40:56.445Z,3.64
2023-02-14T04:43:25.412Z,3.52
2023-02-14T04:45:53.048Z,3.60
2023-02-14T04:48:21.344Z,3.67
2023-02-14T04:50:52.567Z,3.72
2023-02-14T04:53:20.559Z,3.61
2023-02-14T04:55:49.649Z,3.54
2023-02-14T04:58:17.473Z,3.52
2023-02-14T05:00:46.463Z,3.52
2023-02-14T05:03:14.103Z,3.55
2023-02-14T05:05:41.699Z,3.50
2023-02-14T05:08:09.290Z,3.52
2023-02-14T05:10:36.980Z,3.43
2023-02-14T05:13:04.558Z,3.36
2023-02-14T05:15:32.226Z,3.34
2023-02-14T05:18:02.831Z,3.38
2023-02-14T05:20:30.830Z,3.32
2023-02-14T05:22:59.928Z,3.36
2023-02-14T05:25:27.630Z,3.30
2023-02-14T05:27:55.155Z,3.24
2023-02-14T05:30:26.536Z,3.33
2023-02-14T05:32:55.147Z,3.41
2023-02-14T05:35:24.209Z,3.44
2023-02-14T05:37:51.845Z,3.38
2023-02-14T05:42:49.456Z,3.35
2023-02-14T05:45:17.173Z,3.41
2023-02-14T05:47:44.781Z,3.33
2023-02-14T05:50:12.691Z,3.26
2023-02-14T05:52:41.662Z,3.27
2023-02-14T05:55:10.063Z,3.23
2023-02-14T05:57:37.783Z,3.31
2023-02-14T06:00:06.453Z,3.29
2023-02-14T06:02:34.265Z,3.38
2023-02-14T06:05:01.957Z,3.36
2023-02-14T06:07:29.572Z,3.30
2023-02-14T06:09:58.581Z,3.18
2023-02-14T06:12:26.237Z,3.21
2023-02-14T06:14:54.403Z,3.12
2023-02-14T06:17:22.037Z,3.07
2023-02-14T06:19:49.620Z,3.06
2023-02-14T06:22:17.274Z,3.05
2023-02-14T06:24:44.882Z,3.08
2023-02-14T06:27:16.576Z,3.09
2023-02-14T06:29:44.166Z,2.99
2023-02-14T06:32:11.935Z,2.94
2023-02-14T06:34:40.902Z,2.98
2023-02-14T06:37:09.194Z,3.11
2023-02-14T06:39:37.447Z,3.16
2023-02-14T06:42:05.234Z,3.17
2023-02-14T06:44:34.199Z,3.27
2023-02-14T06:47:01.827Z,3.35
2023-02-14T06:49:29.447Z,3.32
2023-02-14T06:51:57.107Z,3.37
2023-02-14T06:54:24.686Z,3.36
2023-02-14T06:56:52.391Z,3.24
2023-02-14T06:59:20.008Z,3.13
2023-02-14T07:01:49.041Z,3.10
2023-02-14T07:04:17.672Z,3.15
2023-02-14T07:06:45.762Z,3.17
2023-02-14T07:09:16.681Z,3.28
2023-02-14T07:11:45.078Z,3.26
2023-02-14T07:14:13.555Z,3.33
2023-02-14T07:16:41.456Z,3.33
2023-02-14T07:19:10.383Z,3.30
2023-02-14T07:21:38.108Z,3.29
2023-02-14T07:24:05.875Z,3.21
2023-02-14T07:26:35.777Z,3.27
2023-02-14T07:29:03.615Z,3.15
2023-02-14T07:31:31.274Z,3.15
2023-02-14T07:34:00.699Z,3.15
2023-02-14T07:36:29.726Z,3.28
2023-02-14T07:38:58.440Z,3.31
2023-02-14T07:41:26.151Z,3.37
2023-02-14T07:43:53.709Z,3.40
2023-02-14T07:46:21.352Z,3.46
2023-02-14T07:48:51.617Z,3.49
2023-02-14T07:51:19.287Z,3.55
2023-02-14T07:53:48.367Z,3.50
2023-02-14T07:56:15.973Z,3.55
2023-02-14T07:58:43.546Z,3.54
2023-02-14T08:01:13.211Z,3.61
2023-02-14T08:03:40.817Z,3.67
2023-02-14T08:06:08.508Z,3.74
2023-02-14T08:08:36.190Z,3.82
2023-02-14T08:11:05.238Z,3.94
2023-02-14T08:13:33.004Z,4.05
2023-02-14T08:16:06.767Z,4.10
2023-02-14T08:18:37.211Z,4.20
2023-02-14T08:21:06.120Z,4.28
2023-02-14T08:23:33.780Z,4.40
2023-02-14T08:26:01.580Z,4.53
2023-02-14T08:28:32.497Z,4.62
2023-02-14T08:31:00.636Z,4.72
2023-02-14T08:33:28.669Z,4.79
2023-02-14T08:35:56.252Z,4.88
2023-02-14T08:38:24.831Z,4.95
2023-02-14T08:40:54.700Z,5.03
2023-02-14T08:43:22.306Z,5.11
2023-02-14T08:45:54.860Z,5.21
2023-02-14T08:48:23.457Z,5.19
2023-02-14T08:50:51.215Z,5.20
2023-02-14T08:53:18.979Z,5.27
2023-02-14T08:55:46.572Z,5.41
2023-02-14T08:58:14.255Z,5.53
2023-02-14T09:00:42.235Z,5.58
2023-02-14T09:03:11.487Z,5.65
2023-02-14T09:05:39.221Z,5.71
2023-02-14T09:08:07.594Z,5.79
2023-02-14T09:10:35.195Z,5.87
2023-02-14T09:13:02.853Z,5.97
2023-02-14T09:15:31.522Z,6.07
2023-02-14T09:17:59.192Z,6.14
2023-02-14T09:20:28.137Z,6.23
2023-02-14T09:22:56.384Z,6.26
2023-02-14T09:25:23.935Z,6.31
2023-02-14T09:27:53.948Z,6.37
2023-02-14T09:30:21.659Z,6.42
2023-02-14T09:32:49.245Z,6.52
2023-02-14T09:35:34.629Z,6.56
2023-02-14T09:38:19.071Z,6.62
2023-02-14T09:40:47.354Z,6.70
2023-02-14T09:43:23.026Z,6.76
2023-02-14T09:45:54.201Z,6.84
2023-02-14T09:48:28.256Z,6.90
2023-02-14T09:51:00.450Z,7.00
2023-02-14T09:53:33.128Z,7.08
2023-02-14T09:56:10.074Z,7.14
2023-02-14T09:58:46.454Z,7.17
2023-02-14T10:01:19.177Z,7.23
2023-02-14T10:04:16.828Z,7.31
2023-02-14T10:06:49.820Z,7.38
2023-02-14T10:09:39.754Z,7.42
2023-02-14T10:12:15.315Z,7.48
2023-02-14T10:14:44.210Z,7.50
2023-02-14T10:17:17.608Z,7.59
2023-02-14T10:19:49.786Z,7.63
2023-02-14T10:22:19.842Z,7.67
2023-02-14T10:24:57.336Z,7.73
2023-02-14T10:27:33.231Z,7.77
2023-02-14T10:30:02.679Z,7.79
2023-02-14T10:32:38.597Z,7.84
2023-02-14T10:35:16.234Z,7.88
2023-02-14T10:37:56.974Z,7.92
2023-02-14T10:40:49.758Z,7.96
2023-02-14T10:43:30.107Z,7.98
2023-02-14T10:46:06.763Z,7.97
2023-02-14T10:48:45.446Z,8.03
2023-02-14T10:51:17.496Z,8.09
2023-02-14T10:54:02.794Z,8.22
2023-02-14T10:56:39.473Z,8.26
2023-02-14T10:59:18.216Z,8.26
2023-02-14T11:01:47.018Z,8.30
2023-02-14T11:04:17.921Z,8.31
2023-02-14T11:06:48.347Z,8.30
2023-02-14T11:09:16.029Z,8.33
2023-02-14T11:11:49.712Z,8.35
2023-02-14T11:14:23.306Z,8.38
2023-02-14T11:16:52.539Z,8.38
2023-02-14T11:19:26.740Z,8.40
2023-02-14T11:21:56.382Z,8.45
2023-02-14T11:24:28.913Z,8.44
2023-02-14T11:27:00.768Z,8.42
2023-02-14T11:29:30.785Z,8.46
2023-02-14T11:32:08.317Z,8.51
2023-02-14T11:34:39.944Z,8.56
2023-02-14T11:37:25.843Z,8.56
2023-02-14T11:39:57.737Z,8.58
2023-02-14T11:42:43.588Z,8.61
2023-02-14T11:45:31.270Z,8.65
2023-02-14T11:48:22.055Z,8.67
2023-02-14T11:50:58.237Z,8.70
2023-02-14T11:53:28.490Z,8.74
2023-02-14T11:55:58.471Z,8.78
2023-02-14T11:58:34.490Z,8.79
2023-02-14T12:01:03.010Z,8.84
2023-02-14T12:03:39.292Z,8.89
2023-02-14T12:06:07.487Z,8.91
2023-02-14T12:08:38.788Z,8.96
2023-02-14T12:11:18.735Z,9.00
2023-02-14T12:13:54.855Z,9.13
2023-02-14T12:16:28.293Z,9.28
2023-02-14T12:19:00.638Z,9.47
2023-02-14T12:21:43.720Z,9.71
2023-02-14T12:24:23.772Z,9.84
2023-02-14T12:26:58.411Z,10.08
2023-02-14T12:29:33.123Z,10.31
2023-02-14T12:32:03.915Z,10.48
2023-02-14T12:34:31.583Z,10.69
2023-02-14T12:37:13.941Z,10.82
2023-02-14T12:39:52.393Z,10.94
2023-02-14T12:42:34.303Z,11.08
2023-02-14T12:45:13.575Z,11.20
2023-02-14T12:47:50.966Z,11.17
2023-02-14T12:50:30.119Z,11.34
2023-02-14T12:53:15.507Z,11.47
2023-02-14T12:55:56.087Z,11.62
2023-02-14T12:58:37.530Z,11.77
2023-02-14T13:01:38.518Z,11.90
2023-02-14T13:04:43.782Z,12.05
2023-02-14T13:07:23.689Z,12.15
2023-02-14T13:09:59.396Z,12.21
2023-02-14T13:12:36.208Z,12.39
2023-02-14T13:15:20.318Z,12.46
2023-02-14T13:17:55.962Z,12.46
2023-02-14T13:20:39.197Z,12.54
2023-02-14T13:23:14.145Z,12.69
2023-02-14T13:25:48.857Z,12.76
2023-02-14T13:28:17.765Z,12.86
2023-02-14T13:30:45.632Z,12.82
2023-02-14T13:33:27.122Z,12.64
2023-02-14T13:35:58.198Z,12.48
2023-02-14T13:38:28.307Z,12.42
2023-02-14T13:40:58.372Z,12.25
2023-02-14T13:43:56.639Z,12.11
2023-02-14T13:46:47.643Z,11.99
2023-02-14T13:49:27.069Z,11.89
2023-02-14T13:51:57.207Z,11.81
2023-02-14T13:54:46.746Z,11.77
2023-02-14T13:57:32.025Z,11.66
2023-02-14T14:00:39.636Z,11.61
2023-02-14T14:03:13.060Z,11.57
2023-02-14T14:06:04.683Z,11.49
2023-02-14T14:08:43.975Z,11.42
2023-02-14T14:11:27.905Z,11.40
2023-02-14T14:14:01.574Z,11.34
2023-02-14T14:16:33.209Z,11.35
2023-02-14T14:19:03.319Z,11.29
2023-02-14T14:21:34.638Z,11.25
2023-02-14T14:24:13.231Z,11.23
2023-02-14T14:26:43.885Z,11.17
2023-02-14T14:29:17.415Z,11.15
2023-02-14T14:31:46.804Z,11.12
2023-02-14T14:34:19.620Z,11.10
2023-02-14T14:36:49.096Z,11.04
2023-02-14T14:39:27.892Z,11.03
2023-02-14T14:41:56.033Z,11.03
2023-02-14T14:44:25.569Z,11.00
2023-02-14T14:46:53.531Z,11.02
2023-02-14T14:49:22.451Z,11.01
2023-02-14T14:51:51.445Z,11.00
2023-02-14T14:54:21.245Z,10.95
2023-02-14T14:56:51.864Z,10.94
2023-02-14T14:59:28.935Z,10.91
2023-02-14T15:01:56.940Z,10.86
2023-02-14T15:04:28.542Z,10.84
2023-02-14T15:06:58.706Z,10.82
2023-02-14T15:09:33.495Z,10.83
2023-02-14T15:12:20.449Z,10.81
2023-02-14T15:14:54.528Z,10.79
2023-02-14T15:17:25.988Z,10.74
2023-02-14T15:19:56.871Z,10.70
2023-02-14T15:22:29.504Z,10.67
2023-02-14T15:24:58.739Z,10.61
2023-02-14T15:27:27.988Z,10.64
2023-02-14T15:29:58.196Z,10.61
2023-02-14T15:32:29.120Z,10.59
2023-02-14T15:34:57.236Z,10.56
2023-02-14T15:37:26.890Z,10.55
2023-02-14T15:39:57.088Z,10.54
2023-02-14T15:42:29.217Z,10.53
2023-02-14T15:45:17.171Z,10.47
2023-02-14T15:47:47.788Z,10.39
2023-02-14T15:50:17.639Z,10.32
2023-02-14T15:52:48.882Z,10.28
2023-02-14T15:55:19.456Z,10.28
2023-02-14T15:57:54.447Z,10.30
2023-02-14T16:00:23.922Z,10.26
2023-02-14T16:02:55.366Z,10.20
2023-02-14T16:05:25.692Z,10.15
2023-02-14T16:08:00.003Z,10.02
2023-02-14T16:10:29.333Z,10.00
2023-02-14T16:13:00.108Z,9.98
2023-02-14T16:15:31.705Z,9.95
2023-02-14T16:18:00.873Z,9.88
2023-02-14T16:20:40.001Z,9.83
2023-02-14T16:23:23.766Z,9.80
2023-02-14T16:25:51.907Z,9.79
2023-02-14T16:28:20.028Z,9.86
2023-02-14T16:30:53.665Z,9.85
2023-02-14T16:33:23.262Z,9.88
2023-02-14T16:35:51.697Z,9.80
2023-02-14T16:38:22.357Z,9.79
2023-02-14T16:40:52.097Z,9.77
2023-02-14T16:43:21.530Z,9.68
2023-02-14T16:45:50.283Z,9.67
2023-02-14T16:48:17.997Z,9.38
2023-02-14T16:50:46.545Z,9.31
2023-02-14T16:53:25.818Z,9.23
2023-02-14T16:55:55.718Z,9.12
2023-02-14T16:58:28.698Z,9.07
2023-02-14T17:00:58.493Z,9.12
2023-02-14T17:03:26.422Z,9.09
2023-02-14T17:05:55.400Z,9.03
2023-02-14T17:08:26.818Z,8.92
2023-02-14T17:10:56.644Z,8.94
2023-02-14T17:13:27.716Z,8.72
2023-02-14T17:15:56.315Z,8.80
2023-02-14T17:18:25.399Z,8.73
2023-02-14T17:20:53.295Z,8.71
2023-02-14T17:23:21.440Z,8.69
2023-02-14T17:25:50.955Z,8.69
2023-02-14T17:28:18.717Z,8.74
2023-02-14T17:30:47.446Z,8.70
2023-02-14T17:33:15.148Z,8.66
2023-02-14T17:35:42.756Z,8.65
2023-02-14T17:38:10.594Z,8.73
2023-02-14T17:40:38.262Z,8.74
2023-02-14T17:43:07.491Z,8.69
2023-02-14T17:45:35.277Z,8.71
2023-02-14T17:48:03.127Z,8.66
2023-02-14T17:50:31.146Z,8.67
2023-02-14T17:52:58.863Z,8.61
2023-02-14T17:55:26.490Z,8.58
2023-02-14T17:57:54.095Z,8.58
2023-02-14T18:00:24.346Z,8.58
2023-02-14T18:02:52.163Z,8.56
2023-02-14T18:05:20.097Z,8.43
2023-02-14T18:07:47.694Z,8.41
2023-02-14T18:10:15.363Z,8.43
2023-02-14T18:12:43.867Z,8.42
2023-02-14T18:15:11.557Z,8.30
2023-02-14T18:17:40.575Z,8.25
2023-02-14T18:20:09.214Z,8.12
2023-02-14T18:22:37.041Z,8.17
2023-02-14T18:25:05.115Z,8.13
2023-02-14T18:27:32.919Z,8.11
2023-02-14T18:30:00.616Z,7.99
2023-02-14T18:32:28.476Z,7.93
2023-02-14T18:34:57.417Z,7.95
2023-02-14T18:37:25.118Z,7.83
2023-02-14T18:39:52.769Z,7.89
2023-02-14T18:42:20.402Z,7.85
2023-02-14T18:44:48.120Z,7.74
2023-02-14T18:47:16.358Z,7.75
2023-02-14T18:49:43.968Z,7.74
2023-02-14T18:52:12.981Z,7.64
2023-02-14T18:54:40.841Z,7.66
2023-02-14T18:57:09.095Z,7.66
2023-02-14T18:59:37.268Z,7.59
2023-02-14T19:02:04.979Z,7.56
2023-02-14T19:04:32.621Z,7.58
2023-02-14T19:07:00.336Z,7.50
2023-02-14T19:09:29.502Z,7.43
2023-02-14T19:11:59.935Z,7.39
2023-02-14T19:14:27.814Z,7.33
2023-02-14T19:16:55.456Z,7.19
2023-02-14T19:19:24.280Z,7.13
2023-02-14T19:21:53.214Z,7.17
2023-02-14T19:24:21.767Z,7.18
2023-02-14T19:26:51.139Z,7.14
2023-02-14T19:29:21.001Z,6.93
2023-02-14T19:31:50.745Z,6.94
2023-02-14T19:34:20.894Z,6.90
2023-02-14T19:36:50.296Z,6.96
2023-02-14T19:39:18.945Z,6.97
2023-02-14T19:41:47.621Z,6.98
2023-02-14T19:44:18.824Z,6.86
2023-02-14T19:46:48.622Z,6.87
2023-02-14T19:49:18.351Z,6.92
2023-02-14T19:51:47.337Z,7.00
2023-02-14T19:54:15.425Z,6.99
2023-02-14T19:56:45.023Z,6.86
2023-02-14T19:59:19.595Z,6.95
2023-02-14T20:01:50.158Z,6.99
2023-02-14T20:04:20.655Z,6.90
2023-02-14T20:06:49.832Z,6.88
2023-02-14T20:09:21.573Z,6.86
2023-02-14T20:11:51.204Z,6.74
2023-02-14T20:14:21.575Z,6.77
2023-02-14T20:16:50.769Z,6.80
2023-02-14T20:19:20.539Z,6.79
2023-02-14T20:21:50.327Z,6.79
2023-02-14T20:24:20.766Z,6.79
2023-02-14T20:26:49.884Z,6.77
2023-02-14T20:29:18.603Z,6.67
2023-02-14T20:31:52.057Z,6.71
2023-02-14T20:34:20.673Z,6.81
2023-02-14T20:36:52.938Z,6.93
2023-02-14T20:39:23.302Z,6.96
2023-02-14T20:41:50.934Z,7.00
2023-02-14T20:44:21.401Z,6.99
2023-02-14T20:46:53.004Z,6.85
2023-02-14T20:49:22.125Z,6.92
2023-02-14T20:51:51.092Z,6.96
2023-02-14T20:54:19.508Z,6.88
2023-02-14T20:56:49.521Z,6.77
2023-02-14T20:59:19.221Z,6.71
2023-02-14T21:01:46.924Z,6.71
2023-02-14T21:04:16.670Z,6.64
2023-02-14T21:06:44.254Z,6.54
2023-02-14T21:09:11.891Z,6.53
2023-02-14T21:11:39.506Z,6.52
2023-02-14T21:14:07.188Z,6.48
2023-02-14T21:16:34.779Z,6.42
2023-02-14T21:19:02.418Z,6.38
2023-02-14T21:21:34.790Z,6.36
2023-02-14T21:24:04.831Z,6.18
2023-02-14T21:26:32.878Z,6.29
2023-02-14T21:29:01.482Z,6.26
2023-02-14T21:31:29.625Z,6.30
2023-02-14T21:33:59.295Z,6.29
2023-02-14T21:36:29.043Z,6.31
2023-02-14T21:38:59.249Z,6.25
2023-02-14T21:41:29.290Z,6.15
2023-02-14T21:43:58.241Z,6.15
2023-02-14T21:46:27.450Z,6.15
2023-02-14T21:49:14.011Z,6.00
2023-02-14T21:51:42.002Z,6.05
2023-02-14T21:54:11.661Z,5.93
2023-02-14T21:56:41.193Z,5.93
2023-02-14T21:59:09.919Z,5.93
2023-02-14T22:01:40.150Z,5.96
2023-02-14T22:04:09.662Z,5.93
2023-02-14T22:06:38.261Z,5.96
2023-02-14T22:09:07.013Z,5.99
2023-02-14T22:11:36.524Z,5.91
2023-02-14T22:14:04.519Z,5.91
2023-02-14T22:16:32.411Z,5.92
2023-02-14T22:19:00.045Z,5.97
2023-02-14T22:21:28.396Z,5.96
2023-02-14T22:23:56.378Z,5.93
2023-02-14T22:26:25.715Z,5.91
2023-02-14T22:28:58.953Z,5.78
2023-02-14T22:31:28.547Z,5.77
2023-02-14T22:33:56.788Z,5.81
2023-02-14T22:36:25.087Z,5.75
2023-02-14T22:38:52.808Z,5.69
2023-02-14T22:41:22.590Z,5.75
2023-02-14T22:43:50.694Z,5.79
2023-02-14T22:46:21.365Z,5.88
2023-02-14T22:48:50.480Z,5.95
2023-02-14T22:51:21.095Z,5.95
2023-02-14T22:53:49.582Z,5.95
2023-02-14T22:56:20.534Z,5.91
2023-02-14T22:58:48.567Z,5.88
2023-02-14T23:01:18.081Z,5.95
2023-02-14T23:03:47.814Z,5.98
2023-02-14T23:06:16.721Z,5.95
2023-02-14T23:08:55.337Z,6.03
2023-02-14T23:11:25.300Z,5.99
2023-02-14T23:14:10.986Z,5.95
2023-02-14T23:17:07.521Z,6.00
2023-02-14T23:19:58.820Z,6.06
2023-02-14T23:22:28.787Z,6.09
2023-02-14T23:24:58.295Z,5.98
2023-02-14T23:27:30.105Z,5.93
2023-02-14T23:29:57.792Z,5.97
2023-02-14T23:32:25.541Z,5.96
2023-02-14T23:34:54.574Z,5.89
2023-02-14T23:37:22.229Z,5.88
2023-02-14T23:39:50.714Z,5.78
2023-02-14T23:42:18.509Z,5.74
2023-02-14T23:44:46.908Z,5.65
2023-02-14T23:47:15.809Z,5.50
2023-02-14T23:49:45.706Z,5.43
2023-02-14T23:52:14.917Z,5.41
2023-02-14T23:54:43.646Z,5.33
2023-02-14T23:57:11.311Z,5.27
2023-02-14T23:59:39.294Z,5.29
